sensor_id;sensor_type;location;lat;lon;timestamp;pressure;altitude;pressure_sealevel;temperature;humidity
19748;BME280;10032;51.386;12.516;2023-05-22T00:00:13;100163.13;;;19.11;100.00
19748;BME280;10032;51.386;12.516;2023-05-22T00:02:39;100161.53;;;19.10;100.00
19748;BME280;10032;51.386;12.516;2023-05-22T00:05:09;100154.41;;;19.09;100.00
19748;BME280;10032;51.386;12.516;2023-05-22T00:07:35;100165.19;;;19.06;100.00
19748;BME280;10032;51.386;12.516;2023-05-22T00:10:01;100157.84;;;19.01;100.00
19748;BME280;10032;51.386;12.516;2023-05-22T00:12:26;100163.44;;;18.96;100.00
19748;BME280;10032;51.386;12.516;2023-05-22T00:14:52;100161.31;;;18.93;100.00
19748;BME280;10032;51.386;12.516;2023-05-22T00:17:17;100154.19;;;18.92;100.00
19748;BME280;10032;51.386;12.516;2023-05-22T00:19:43;100154.38;;;18.82;100.00
19748;BME280;10032;51.386;12.516;2023-05-22T00:22:08;100152.53;;;18.78;100.00
19748;BME280;10032;51.386;12.516;2023-05-22T00:24:34;100152.13;;;18.71;100.00
19748;BME280;10032;51.386;12.516;2023-05-22T00:27:00;100160.94;;;18.68;100.00
19748;BME280;10032;51.386;12.516;2023-05-22T00:29:25;100152.72;;;18.68;100.00
19748;BME280;10032;51.386;12.516;2023-05-22T00:31:50;100154.13;;;18.65;100.00
19748;BME280;10032;51.386;12.516;2023-05-22T00:34:16;100151.59;;;18.55;100.00
19748;BME280;10032;51.386;12.516;2023-05-22T00:36:41;100150.03;;;18.49;100.00
19748;BME280;10032;51.386;12.516;2023-05-22T00:39:07;100152.28;;;18.47;100.00
19748;BME280;10032;51.386;12.516;2023-05-22T00:41:33;100151.78;;;18.45;100.00
19748;BME280;10032;51.386;12.516;2023-05-22T00:43:59;100143.53;;;18.45;100.00
19748;BME280;10032;51.386;12.516;2023-05-22T00:46:25;100146.78;;;18.47;100.00
19748;BME280;10032;51.386;12.516;2023-05-22T00:48:51;100143.44;;;18.37;100.00
19748;BME280;10032;51.386;12.516;2023-05-22T00:51:20;100138.03;;;18.32;100.00
19748;BME280;10032;51.386;12.516;2023-05-22T00:53:47;100142.66;;;18.31;100.00
19748;BME280;10032;51.386;12.516;2023-05-22T00:56:13;100135.53;;;18.30;100.00
19748;BME280;10032;51.386;12.516;2023-05-22T00:58:40;100132.25;;;18.28;100.00
19748;BME280;10032;51.386;12.516;2023-05-22T01:01:06;100131.19;;;18.29;100.00
19748;BME280;10032;51.386;12.516;2023-05-22T01:03:43;100136.50;;;18.21;100.00
19748;BME280;10032;51.386;12.516;2023-05-22T01:06:13;100135.22;;;18.18;100.00
19748;BME280;10032;51.386;12.516;2023-05-22T01:08:39;100135.78;;;18.15;100.00
19748;BME280;10032;51.386;12.516;2023-05-22T01:11:19;100136.91;;;18.14;100.00
19748;BME280;10032;51.386;12.516;2023-05-22T01:14:06;100137.50;;;18.11;100.00
19748;BME280;10032;51.386;12.516;2023-05-22T01:16:36;100135.38;;;18.08;100.00
19748;BME280;10032;51.386;12.516;2023-05-22T01:21:44;100140.94;;;18.03;100.00
19748;BME280;10032;51.386;12.516;2023-05-22T01:30:52;100142.63;;;17.99;100.00
19748;BME280;10032;51.386;12.516;2023-05-22T01:32:47;100145.25;;;17.91;100.00
19748;BME280;10032;51.386;12.516;2023-05-22T01:35:15;100145.31;;;17.86;100.00
19748;BME280;10032;51.386;12.516;2023-05-22T01:37:43;100143.78;;;17.80;100.00
19748;BME280;10032;51.386;12.516;2023-05-22T01:40:10;100139.16;;;17.75;100.00
19748;BME280;10032;51.386;12.516;2023-05-22T01:42:37;100140.56;;;17.73;100.00
19748;BME280;10032;51.386;12.516;2023-05-22T01:45:07;100137.47;;;17.61;100.00
19748;BME280;10032;51.386;12.516;2023-05-22T01:47:33;100143.00;;;17.56;100.00
19748;BME280;10032;51.386;12.516;2023-05-22T01:49:59;100153.97;;;17.56;100.00
19748;BME280;10032;51.386;12.516;2023-05-22T01:52:55;100149.38;;;17.51;100.00
19748;BME280;10032;51.386;12.516;2023-05-22T01:56:00;100147.38;;;17.33;100.00
19748;BME280;10032;51.386;12.516;2023-05-22T01:58:57;100148.78;;;17.31;100.00
19748;BME280;10032;51.386;12.516;2023-05-22T02:01:27;100151.53;;;17.31;100.00
19748;BME280;10032;51.386;12.516;2023-05-22T02:03:56;100152.19;;;17.23;100.00
19748;BME280;10032;51.386;12.516;2023-05-22T02:06:24;100156.28;;;17.25;100.00
19748;BME280;10032;51.386;12.516;2023-05-22T02:08:53;100150.34;;;17.18;100.00
19748;BME280;10032;51.386;12.516;2023-05-22T02:11:21;100152.53;;;17.16;100.00
19748;BME280;10032;51.386;12.516;2023-05-22T02:13:48;100151.75;;;17.16;100.00
19748;BME280;10032;51.386;12.516;2023-05-22T02:16:14;100157.22;;;17.16;100.00
19748;BME280;10032;51.386;12.516;2023-05-22T02:18:39;100148.22;;;17.10;100.00
19748;BME280;10032;51.386;12.516;2023-05-22T02:21:06;100150.91;;;17.15;100.00
19748;BME280;10032;51.386;12.516;2023-05-22T02:23:33;100150.97;;;17.10;100.00
19748;BME280;10032;51.386;12.516;2023-05-22T02:25:58;100144.22;;;17.03;100.00
19748;BME280;10032;51.386;12.516;2023-05-22T02:28:23;100148.34;;;17.00;100.00
19748;BME280;10032;51.386;12.516;2023-05-22T02:30:49;100150.63;;;16.93;100.00
19748;BME280;10032;51.386;12.516;2023-05-22T02:33:14;100138.63;;;16.89;100.00
19748;BME280;10032;51.386;12.516;2023-05-22T02:35:42;100132.41;;;16.84;100.00
19748;BME280;10032;51.386;12.516;2023-05-22T02:38:07;100133.22;;;16.84;100.00
19748;BME280;10032;51.386;12.516;2023-05-22T02:40:33;100131.00;;;16.86;100.00
19748;BME280;10032;51.386;12.516;2023-05-22T02:42:58;100127.72;;;16.84;100.00
19748;BME280;10032;51.386;12.516;2023-05-22T02:45:24;100134.03;;;16.85;100.00
19748;BME280;10032;51.386;12.516;2023-05-22T02:47:49;100135.16;;;16.84;100.00
19748;BME280;10032;51.386;12.516;2023-05-22T02:50:15;100129.34;;;16.85;100.00
19748;BME280;10032;51.386;12.516;2023-05-22T02:52:40;100125.81;;;16.85;100.00
19748;BME280;10032;51.386;12.516;2023-05-22T02:55:07;100125.06;;;16.79;100.00
19748;BME280;10032;51.386;12.516;2023-05-22T02:57:34;100128.63;;;16.80;100.00
19748;BME280;10032;51.386;12.516;2023-05-22T03:00:00;100127.28;;;16.77;100.00
19748;BME280;10032;51.386;12.516;2023-05-22T03:02:25;100116.34;;;16.77;100.00
19748;BME280;10032;51.386;12.516;2023-05-22T03:04:56;100127.34;;;16.72;100.00
19748;BME280;10032;51.386;12.516;2023-05-22T03:07:23;100116.38;;;16.72;100.00
19748;BME280;10032;51.386;12.516;2023-05-22T03:09:51;100108.75;;;16.69;100.00
19748;BME280;10032;51.386;12.516;2023-05-22T03:12:16;100116.66;;;16.71;100.00
19748;BME280;10032;51.386;12.516;2023-05-22T03:14:41;100111.03;;;16.62;100.00
19748;BME280;10032;51.386;12.516;2023-05-22T03:17:07;100122.47;;;16.64;100.00
19748;BME280;10032;51.386;12.516;2023-05-22T03:19:32;100122.00;;;16.57;100.00
19748;BME280;10032;51.386;12.516;2023-05-22T03:21:57;100118.22;;;16.53;100.00
19748;BME280;10032;51.386;12.516;2023-05-22T03:24:23;100120.94;;;16.53;100.00
19748;BME280;10032;51.386;12.516;2023-05-22T03:26:48;100122.13;;;16.47;100.00
19748;BME280;10032;51.386;12.516;2023-05-22T03:29:14;100122.72;;;16.44;100.00
19748;BME280;10032;51.386;12.516;2023-05-22T03:31:39;100122.13;;;16.47;100.00
19748;BME280;10032;51.386;12.516;2023-05-22T03:34:05;100117.25;;;16.44;100.00
19748;BME280;10032;51.386;12.516;2023-05-22T03:36:31;100118.81;;;16.50;100.00
19748;BME280;10032;51.386;12.516;2023-05-22T03:39:02;100124.84;;;16.47;100.00
19748;BME280;10032;51.386;12.516;2023-05-22T03:41:28;100120.22;;;16.48;100.00
19748;BME280;10032;51.386;12.516;2023-05-22T03:43:54;100119.94;;;16.49;100.00
19748;BME280;10032;51.386;12.516;2023-05-22T03:46:19;100118.00;;;16.50;100.00
19748;BME280;10032;51.386;12.516;2023-05-22T03:48:45;100116.88;;;16.51;100.00
19748;BME280;10032;51.386;12.516;2023-05-22T03:51:10;100117.25;;;16.44;100.00
19748;BME280;10032;51.386;12.516;2023-05-22T03:53:35;100121.31;;;16.47;100.00
19748;BME280;10032;51.386;12.516;2023-05-22T03:56:01;100116.06;;;16.50;100.00
19748;BME280;10032;51.386;12.516;2023-05-22T03:58:26;100106.75;;;16.51;100.00
19748;BME280;10032;51.386;12.516;2023-05-22T04:00:53;100114.09;;;16.56;100.00
19748;BME280;10032;51.386;12.516;2023-05-22T04:03:19;100113.53;;;16.59;100.00
19748;BME280;10032;51.386;12.516;2023-05-22T04:05:45;100110.19;;;16.62;100.00
19748;BME280;10032;51.386;12.516;2023-05-22T04:08:11;100109.13;;;16.63;100.00
19748;BME280;10032;51.386;12.516;2023-05-22T04:10:37;100110.97;;;16.67;100.00
19748;BME280;10032;51.386;12.516;2023-05-22T04:13:03;100105.72;;;16.71;100.00
19748;BME280;10032;51.386;12.516;2023-05-22T04:15:28;100105.38;;;16.77;100.00
19748;BME280;10032;51.386;12.516;2023-05-22T04:17:54;100106.19;;;16.78;100.00
19748;BME280;10032;51.386;12.516;2023-05-22T04:20:19;100104.22;;;16.83;100.00
19748;BME280;10032;51.386;12.516;2023-05-22T04:22:47;100102.53;;;16.87;100.00
19748;BME280;10032;51.386;12.516;2023-05-22T04:25:13;100116.44;;;16.91;100.00
19748;BME280;10032;51.386;12.516;2023-05-22T04:27:38;100115.03;;;16.93;100.00
19748;BME280;10032;51.386;12.516;2023-05-22T04:30:06;100111.19;;;16.94;100.00
19748;BME280;10032;51.386;12.516;2023-05-22T04:32:31;100117.94;;;17.02;100.00
19748;BME280;10032;51.386;12.516;2023-05-22T04:34:57;100109.97;;;17.05;100.00
19748;BME280;10032;51.386;12.516;2023-05-22T04:37:24;100112.69;;;17.05;100.00
19748;BME280;10032;51.386;12.516;2023-05-22T04:39:52;100113.75;;;17.09;100.00
19748;BME280;10032;51.386;12.516;2023-05-22T04:42:22;100115.16;;;17.07;100.00
19748;BME280;10032;51.386;12.516;2023-05-22T04:44:49;100115.59;;;17.14;100.00
19748;BME280;10032;51.386;12.516;2023-05-22T04:47:17;100113.41;;;17.16;100.00
19748;BME280;10032;51.386;12.516;2023-05-22T04:49:44;100119.63;;;17.21;100.00
19748;BME280;10032;51.386;12.516;2023-05-22T04:52:10;100121.72;;;17.29;100.00
19748;BME280;10032;51.386;12.516;2023-05-22T04:54:36;100118.16;;;17.29;100.00
19748;BME280;10032;51.386;12.516;2023-05-22T04:57:03;100116.75;;;17.31;100.00
19748;BME280;10032;51.386;12.516;2023-05-22T04:59:34;100115.56;;;17.37;100.00
19748;BME280;10032;51.386;12.516;2023-05-22T05:02:05;100109.97;;;17.47;100.00
19748;BME280;10032;51.386;12.516;2023-05-22T05:04:32;100111.03;;;17.51;100.00
19748;BME280;10032;51.386;12.516;2023-05-22T05:06:57;100112.50;;;17.62;100.00
19748;BME280;10032;51.386;12.516;2023-05-22T05:09:23;100107.91;;;17.76;100.00
19748;BME280;10032;51.386;12.516;2023-05-22T05:11:49;100103.06;;;17.87;100.00
19748;BME280;10032;51.386;12.516;2023-05-22T05:14:15;100103.97;;;18.01;100.00
19748;BME280;10032;51.386;12.516;2023-05-22T05:16:41;100112.41;;;18.04;100.00
19748;BME280;10032;51.386;12.516;2023-05-22T05:19:07;100109.50;;;18.14;100.00
19748;BME280;10032;51.386;12.516;2023-05-22T05:21:32;100110.53;;;18.18;100.00
19748;BME280;10032;51.386;12.516;2023-05-22T05:23:58;100103.22;;;18.27;100.00
19748;BME280;10032;51.386;12.516;2023-05-22T05:26:23;100104.19;;;18.36;100.00
19748;BME280;10032;51.386;12.516;2023-05-22T05:28:49;100107.97;;;18.40;100.00
19748;BME280;10032;51.386;12.516;2023-05-22T05:31:17;100100.66;;;18.63;100.00
19748;BME280;10032;51.386;12.516;2023-05-22T05:33:42;100097.81;;;18.81;100.00
19748;BME280;10032;51.386;12.516;2023-05-22T05:36:07;100105.06;;;19.04;100.00
19748;BME280;10032;51.386;12.516;2023-05-22T05:38:33;100102.31;;;19.31;100.00
19748;BME280;10032;51.386;12.516;2023-05-22T05:40:58;100110.16;;;19.38;100.00
19748;BME280;10032;51.386;12.516;2023-05-22T05:43:24;100109.59;;;19.49;100.00
19748;BME280;10032;51.386;12.516;2023-05-22T05:45:50;100112.25;;;19.76;100.00
19748;BME280;10032;51.386;12.516;2023-05-22T05:48:15;100112.91;;;19.95;100.00
19748;BME280;10032;51.386;12.516;2023-05-22T05:50:41;100111.44;;;20.11;100.00
19748;BME280;10032;51.386;12.516;2023-05-22T05:53:07;100109.59;;;20.20;100.00
19748;BME280;10032;51.386;12.516;2023-05-22T05:55:32;100108.25;;;20.40;100.00
19748;BME280;10032;51.386;12.516;2023-05-22T05:57:58;100110.88;;;20.45;100.00
19748;BME280;10032;51.386;12.516;2023-05-22T06:00:23;100107.72;;;20.60;100.00
19748;BME280;10032;51.386;12.516;2023-05-22T06:02:49;100111.00;;;20.70;100.00
19748;BME280;10032;51.386;12.516;2023-05-22T06:05:14;100114.47;;;20.84;100.00
19748;BME280;10032;51.386;12.516;2023-05-22T06:07:41;100114.22;;;20.94;100.00
19748;BME280;10032;51.386;12.516;2023-05-22T06:10:08;100111.88;;;20.88;100.00
19748;BME280;10032;51.386;12.516;2023-05-22T06:12:35;100112.91;;;20.92;100.00
19748;BME280;10032;51.386;12.516;2023-05-22T06:15:04;100110.31;;;20.95;100.00
19748;BME280;10032;51.386;12.516;2023-05-22T06:17:31;100101.91;;;21.00;100.00
19748;BME280;10032;51.386;12.516;2023-05-22T06:19:57;100104.97;;;20.99;100.00
19748;BME280;10032;51.386;12.516;2023-05-22T06:22:23;100108.75;;;21.11;100.00
19748;BME280;10032;51.386;12.516;2023-05-22T06:24:52;100102.28;;;21.24;100.00
19748;BME280;10032;51.386;12.516;2023-05-22T06:27:21;100107.03;;;21.32;100.00
19748;BME280;10032;51.386;12.516;2023-05-22T06:29:48;100104.28;;;21.49;100.00
19748;BME280;10032;51.386;12.516;2023-05-22T06:32:14;100098.63;;;21.46;100.00
19748;BME280;10032;51.386;12.516;2023-05-22T06:34:39;100100.22;;;21.47;100.00
19748;BME280;10032;51.386;12.516;2023-05-22T06:37:05;100099.44;;;21.46;100.00
19748;BME280;10032;51.386;12.516;2023-05-22T06:39:31;100099.44;;;21.55;100.00
19748;BME280;10032;51.386;12.516;2023-05-22T06:41:56;100096.03;;;21.58;100.00
19748;BME280;10032;51.386;12.516;2023-05-22T06:44:22;100092.34;;;21.79;100.00
19748;BME280;10032;51.386;12.516;2023-05-22T06:46:50;100096.72;;;21.97;100.00
19748;BME280;10032;51.386;12.516;2023-05-22T06:49:16;100091.34;;;22.26;100.00
19748;BME280;10032;51.386;12.516;2023-05-22T06:51:42;100094.56;;;22.45;100.00
19748;BME280;10032;51.386;12.516;2023-05-22T06:54:07;100090.66;;;22.46;100.00
19748;BME280;10032;51.386;12.516;2023-05-22T06:56:33;100091.63;;;22.33;100.00
19748;BME280;10032;51.386;12.516;2023-05-22T06:58:59;100093.69;;;22.62;100.00
19748;BME280;10032;51.386;12.516;2023-05-22T07:01:24;100089.38;;;22.81;100.00
19748;BME280;10032;51.386;12.516;2023-05-22T07:03:50;100097.97;;;22.97;100.00
19748;BME280;10032;51.386;12.516;2023-05-22T07:06:16;100090.81;;;22.87;100.00
19748;BME280;10032;51.386;12.516;2023-05-22T07:08:42;100085.25;;;23.04;100.00
19748;BME280;10032;51.386;12.516;2023-05-22T07:11:07;100081.84;;;22.99;100.00
19748;BME280;10032;51.386;12.516;2023-05-22T07:13:33;100097.53;;;23.15;100.00
19748;BME280;10032;51.386;12.516;2023-05-22T07:15:58;100084.22;;;23.38;100.00
19748;BME280;10032;51.386;12.516;2023-05-22T07:18:23;100091.00;;;23.49;100.00
19748;BME280;10032;51.386;12.516;2023-05-22T07:20:49;100088.97;;;23.58;99.72
19748;BME280;10032;51.386;12.516;2023-05-22T07:23:14;100082.56;;;23.45;97.45
19748;BME280;10032;51.386;12.516;2023-05-22T07:25:41;100084.59;;;23.36;96.67
19748;BME280;10032;51.386;12.516;2023-05-22T07:28:07;100079.25;;;23.31;96.60
19748;BME280;10032;51.386;12.516;2023-05-22T07:30:37;100080.88;;;23.32;96.35
19748;BME280;10032;51.386;12.516;2023-05-22T07:33:03;100088.97;;;23.37;97.81
19748;BME280;10032;51.386;12.516;2023-05-22T07:35:29;100083.25;;;23.83;98.89
19748;BME280;10032;51.386;12.516;2023-05-22T07:37:55;100081.44;;;24.08;97.46
19748;BME280;10032;51.386;12.516;2023-05-22T07:40:20;100087.34;;;24.18;96.82
19748;BME280;10032;51.386;12.516;2023-05-22T07:42:46;100087.25;;;24.27;97.67
19748;BME280;10032;51.386;12.516;2023-05-22T07:45:11;100088.28;;;24.55;96.34
19748;BME280;10032;51.386;12.516;2023-05-22T07:47:37;100088.09;;;24.60;93.23
19748;BME280;10032;51.386;12.516;2023-05-22T07:50:02;100089.69;;;24.61;93.97
19748;BME280;10032;51.386;12.516;2023-05-22T07:52:29;100096.03;;;24.61;93.93
19748;BME280;10032;51.386;12.516;2023-05-22T07:54:56;100086.50;;;24.50;93.86
19748;BME280;10032;51.386;12.516;2023-05-22T07:57:21;100093.84;;;24.34;93.55
19748;BME280;10032;51.386;12.516;2023-05-22T07:59:47;100090.19;;;24.42;94.95
19748;BME280;10032;51.386;12.516;2023-05-22T08:02:13;100089.41;;;24.54;95.71
19748;BME280;10032;51.386;12.516;2023-05-22T08:04:38;100090.50;;;24.61;95.68
19748;BME280;10032;51.386;12.516;2023-05-22T08:07:04;100085.94;;;24.89;96.34
19748;BME280;10032;51.386;12.516;2023-05-22T08:09:30;100093.53;;;24.92;95.50
19748;BME280;10032;51.386;12.516;2023-05-22T08:11:55;100089.75;;;25.09;94.69
19748;BME280;10032;51.386;12.516;2023-05-22T08:14:21;100078.75;;;25.00;95.17
19748;BME280;10032;51.386;12.516;2023-05-22T08:16:47;100087.66;;;25.18;93.45
19748;BME280;10032;51.386;12.516;2023-05-22T08:19:12;100084.53;;;25.07;93.11
19748;BME280;10032;51.386;12.516;2023-05-22T08:21:38;100088.56;;;25.10;91.61
19748;BME280;10032;51.386;12.516;2023-05-22T08:24:05;100084.97;;;25.09;91.45
19748;BME280;10032;51.386;12.516;2023-05-22T08:26:30;100080.38;;;25.25;93.04
19748;BME280;10032;51.386;12.516;2023-05-22T08:28:58;100081.31;;;25.29;90.50
19748;BME280;10032;51.386;12.516;2023-05-22T08:31:23;100079.28;;;25.54;91.73
19748;BME280;10032;51.386;12.516;2023-05-22T08:33:49;100073.94;;;25.73;90.44
19748;BME280;10032;51.386;12.516;2023-05-22T08:36:14;100077.31;;;25.66;87.71
19748;BME280;10032;51.386;12.516;2023-05-22T08:38:40;100078.88;;;25.91;90.21
19748;BME280;10032;51.386;12.516;2023-05-22T08:41:07;100071.00;;;25.93;87.96
19748;BME280;10032;51.386;12.516;2023-05-22T08:43:34;100067.22;;;26.13;85.10
19748;BME280;10032;51.386;12.516;2023-05-22T08:46:03;100062.47;;;26.14;82.89
19748;BME280;10032;51.386;12.516;2023-05-22T08:48:31;100070.19;;;26.20;82.90
19748;BME280;10032;51.386;12.516;2023-05-22T08:50:58;100066.50;;;26.16;82.31
19748;BME280;10032;51.386;12.516;2023-05-22T08:53:27;100064.19;;;26.18;81.68
19748;BME280;10032;51.386;12.516;2023-05-22T08:55:53;100056.28;;;26.20;82.41
19748;BME280;10032;51.386;12.516;2023-05-22T08:58:20;100055.75;;;26.15;78.53
19748;BME280;10032;51.386;12.516;2023-05-22T09:00:46;100058.38;;;26.23;77.50
19748;BME280;10032;51.386;12.516;2023-05-22T09:03:12;100054.22;;;26.60;77.94
19748;BME280;10032;51.386;12.516;2023-05-22T09:05:39;100045.88;;;26.91;78.10
19748;BME280;10032;51.386;12.516;2023-05-22T09:08:06;100045.34;;;27.17;76.05
19748;BME280;10032;51.386;12.516;2023-05-22T09:10:35;100042.34;;;27.25;72.76
19748;BME280;10032;51.386;12.516;2023-05-22T09:13:05;100040.63;;;27.36;73.77
19748;BME280;10032;51.386;12.516;2023-05-22T09:15:36;100033.22;;;27.78;74.76
19748;BME280;10032;51.386;12.516;2023-05-22T09:18:02;100031.69;;;28.00;72.47
19748;BME280;10032;51.386;12.516;2023-05-22T09:20:29;100034.94;;;28.43;71.26
19748;BME280;10032;51.386;12.516;2023-05-22T09:22:54;100041.38;;;28.47;65.30
19748;BME280;10032;51.386;12.516;2023-05-22T09:25:20;100031.53;;;28.34;64.46
19748;BME280;10032;51.386;12.516;2023-05-22T09:27:49;100027.66;;;28.39;62.34
19748;BME280;10032;51.386;12.516;2023-05-22T09:30:19;100023.22;;;28.57;61.20
19748;BME280;10032;51.386;12.516;2023-05-22T09:32:45;100030.84;;;28.18;56.93
19748;BME280;10032;51.386;12.516;2023-05-22T09:35:12;100026.56;;;28.66;59.91
19748;BME280;10032;51.386;12.516;2023-05-22T09:37:38;100017.66;;;29.05;60.49
19748;BME280;10032;51.386;12.516;2023-05-22T09:40:10;100022.00;;;29.29;57.59
19748;BME280;10032;51.386;12.516;2023-05-22T09:42:36;100028.78;;;29.02;55.18
19748;BME280;10032;51.386;12.516;2023-05-22T09:45:06;100021.00;;;29.14;56.23
19748;BME280;10032;51.386;12.516;2023-05-22T09:47:32;100029.00;;;29.42;55.82
19748;BME280;10032;51.386;12.516;2023-05-22T09:50:00;100023.63;;;29.56;54.59
19748;BME280;10032;51.386;12.516;2023-05-22T09:52:27;100025.28;;;29.60;52.42
19748;BME280;10032;51.386;12.516;2023-05-22T09:54:55;100022.56;;;29.67;52.71
19748;BME280;10032;51.386;12.516;2023-05-22T09:57:24;100014.47;;;29.59;49.99
19748;BME280;10032;51.386;12.516;2023-05-22T09:59:51;100018.41;;;29.54;51.10
19748;BME280;10032;51.386;12.516;2023-05-22T10:02:22;100018.84;;;29.89;50.65
19748;BME280;10032;51.386;12.516;2023-05-22T10:04:49;100014.91;;;29.90;48.58
19748;BME280;10032;51.386;12.516;2023-05-22T10:07:18;100016.56;;;29.65;50.11
19748;BME280;10032;51.386;12.516;2023-05-22T10:09:50;100022.88;;;29.59;48.84
19748;BME280;10032;51.386;12.516;2023-05-22T10:12:20;100016.09;;;29.34;48.92
19748;BME280;10032;51.386;12.516;2023-05-22T10:14:47;100006.75;;;29.23;47.20
19748;BME280;10032;51.386;12.516;2023-05-22T10:17:14;100006.63;;;29.12;48.38
19748;BME280;10032;51.386;12.516;2023-05-22T10:19:41;99997.75;;;29.07;48.25
19748;BME280;10032;51.386;12.516;2023-05-22T10:22:07;99997.31;;;29.31;48.26
19748;BME280;10032;51.386;12.516;2023-05-22T10:24:33;99997.06;;;29.13;47.25
19748;BME280;10032;51.386;12.516;2023-05-22T10:26:58;99990.66;;;29.13;47.31
19748;BME280;10032;51.386;12.516;2023-05-22T10:29:37;99997.72;;;29.03;47.23
19748;BME280;10032;51.386;12.516;2023-05-22T10:32:22;99995.88;;;28.92;46.52
19748;BME280;10032;51.386;12.516;2023-05-22T10:40:04;99997.44;;;29.41;46.10
19748;BME280;10032;51.386;12.516;2023-05-22T10:42:32;99998.34;;;29.49;45.90
19748;BME280;10032;51.386;12.516;2023-05-22T10:45:02;99989.81;;;29.64;46.28
19748;BME280;10032;51.386;12.516;2023-05-22T10:47:28;99981.84;;;29.66;44.87
19748;BME280;10032;51.386;12.516;2023-05-22T10:52:28;99981.75;;;29.56;45.44
19748;BME280;10032;51.386;12.516;2023-05-22T10:54:55;99986.34;;;29.74;45.73
19748;BME280;10032;51.386;12.516;2023-05-22T10:57:23;99987.78;;;29.61;44.89
19748;BME280;10032;51.386;12.516;2023-05-22T10:59:48;99986.72;;;29.73;44.78
19748;BME280;10032;51.386;12.516;2023-05-22T11:02:24;99983.16;;;29.46;43.73
19748;BME280;10032;51.386;12.516;2023-05-22T11:07:50;99979.47;;;29.68;44.34
19748;BME280;10032;51.386;12.516;2023-05-22T11:10:25;99980.66;;;29.67;43.58
19748;BME280;10032;51.386;12.516;2023-05-22T11:13:12;99984.31;;;29.71;44.22
19748;BME280;10032;51.386;12.516;2023-05-22T11:15:42;99977.41;;;29.95;42.43
19748;BME280;10032;51.386;12.516;2023-05-22T11:18:10;99975.41;;;29.95;42.60
19748;BME280;10032;51.386;12.516;2023-05-22T11:20:36;99977.72;;;30.23;43.34
19748;BME280;10032;51.386;12.516;2023-05-22T11:23:05;99988.31;;;30.43;41.49
19748;BME280;10032;51.386;12.516;2023-05-22T11:25:35;99983.25;;;30.16;41.68
19748;BME280;10032;51.386;12.516;2023-05-22T11:28:03;99981.00;;;30.32;40.46
19748;BME280;10032;51.386;12.516;2023-05-22T11:30:28;99974.00;;;30.52;40.91
19748;BME280;10032;51.386;12.516;2023-05-22T11:32:58;99978.44;;;30.56;40.95
19748;BME280;10032;51.386;12.516;2023-05-22T11:35:24;99974.03;;;30.15;39.48
19748;BME280;10032;51.386;12.516;2023-05-22T11:37:51;99962.31;;;30.39;40.15
19748;BME280;10032;51.386;12.516;2023-05-22T11:40:18;99963.94;;;30.44;39.53
19748;BME280;10032;51.386;12.516;2023-05-22T11:42:45;99963.72;;;30.19;39.28
19748;BME280;10032;51.386;12.516;2023-05-22T11:45:11;99952.50;;;30.59;39.23
19748;BME280;10032;51.386;12.516;2023-05-22T11:47:37;99955.38;;;30.66;39.52
19748;BME280;10032;51.386;12.516;2023-05-22T11:50:03;99945.53;;;30.90;39.07
19748;BME280;10032;51.386;12.516;2023-05-22T11:52:31;99941.28;;;31.10;38.63
19748;BME280;10032;51.386;12.516;2023-05-22T11:54:57;99949.69;;;31.13;38.62
19748;BME280;10032;51.386;12.516;2023-05-22T11:57:23;99937.50;;;30.81;38.07
19748;BME280;10032;51.386;12.516;2023-05-22T11:59:48;99937.38;;;30.67;38.39
19748;BME280;10032;51.386;12.516;2023-05-22T12:02:15;99929.09;;;30.85;38.98
19748;BME280;10032;51.386;12.516;2023-05-22T12:04:41;99930.84;;;31.10;39.41
19748;BME280;10032;51.386;12.516;2023-05-22T12:07:07;99933.84;;;31.38;39.00
19748;BME280;10032;51.386;12.516;2023-05-22T12:09:33;99935.00;;;31.30;38.67
19748;BME280;10032;51.386;12.516;2023-05-22T12:11:59;99922.59;;;31.31;38.53
19748;BME280;10032;51.386;12.516;2023-05-22T12:14:26;99936.28;;;31.50;38.42
19748;BME280;10032;51.386;12.516;2023-05-22T12:16:52;99929.09;;;31.56;39.09
19748;BME280;10032;51.386;12.516;2023-05-22T12:19:17;99922.28;;;31.47;37.93
19748;BME280;10032;51.386;12.516;2023-05-22T12:21:43;99925.09;;;31.50;38.83
19748;BME280;10032;51.386;12.516;2023-05-22T12:24:09;99927.88;;;31.43;37.49
19748;BME280;10032;51.386;12.516;2023-05-22T12:26:35;99927.06;;;31.43;38.29
19748;BME280;10032;51.386;12.516;2023-05-22T12:29:02;99921.81;;;31.34;37.18
19748;BME280;10032;51.386;12.516;2023-05-22T12:31:33;99914.25;;;31.45;38.16
19748;BME280;10032;51.386;12.516;2023-05-22T12:34:05;99913.16;;;30.89;37.53
19748;BME280;10032;51.386;12.516;2023-05-22T12:36:38;99914.34;;;30.88;37.82
19748;BME280;10032;51.386;12.516;2023-05-22T12:39:12;99917.00;;;31.35;38.21
19748;BME280;10032;51.386;12.516;2023-05-22T12:41:39;99915.53;;;31.62;37.43
19748;BME280;10032;51.386;12.516;2023-05-22T12:44:05;99914.72;;;31.65;36.28
19748;BME280;10032;51.386;12.516;2023-05-22T12:46:31;99912.78;;;31.79;36.07
19748;BME280;10032;51.386;12.516;2023-05-22T12:49:00;99911.53;;;31.63;35.94
19748;BME280;10032;51.386;12.516;2023-05-22T12:51:27;99909.81;;;31.37;35.55
19748;BME280;10032;51.386;12.516;2023-05-22T12:54:00;99910.63;;;31.41;35.93